createdAt,value
2019-02-20T00:03:52.922Z,22.03
2019-02-20T00:08:58.658Z,26.53
2019-02-20T00:14:03.307Z,26.43
2019-02-20T00:19:08.412Z,20.57
2019-02-20T00:24:13.392Z,20.67
2019-02-20T00:29:19.321Z,25.67
2019-02-20T00:34:24.561Z,23.62
2019-02-20T00:39:29.018Z,29.63
2019-02-20T00:44:52.735Z,28.87
2019-02-20T00:49:57.830Z,25.90
2019-02-20T00:55:02.906Z,29.30
2019-02-20T01:00:07.940Z,24.20
2019-02-20T01:05:12.386Z,27.03
2019-02-20T01:10:17.619Z,26.03
2019-02-20T01:15:22.625Z,25.73
2019-02-20T01:20:27.457Z,25.83
2019-02-20T01:25:32.214Z,28.23
2019-02-20T01:30:36.813Z,24.30
2019-02-20T01:35:41.840Z,27.80
2019-02-20T01:40:49.492Z,27.10
2019-02-20T01:45:54.560Z,21.67
2019-02-20T01:50:59.120Z,27.30
2019-02-20T01:56:04.208Z,22.37
2019-02-20T02:01:08.615Z,28.27
2019-02-20T02:06:14.014Z,27.20
2019-02-20T02:11:19.188Z,26.70
2019-02-20T02:16:23.803Z,24.20
2019-02-20T02:21:28.790Z,25.77
2019-02-20T02:26:33.760Z,24.43
2019-02-20T02:31:38.916Z,21.83
2019-02-20T02:36:45.049Z,21.93
2019-02-20T02:41:49.389Z,21.70
2019-02-20T02:46:54.435Z,19.33
2019-02-20T02:51:58.867Z,26.50
2019-02-20T02:57:03.659Z,19.12
2019-02-20T03:02:08.026Z,23.00
2019-02-20T03:07:13.096Z,20.10
2019-02-20T03:12:17.717Z,19.57
2019-02-20T03:17:22.773Z,19.70
2019-02-20T03:22:27.114Z,23.00
2019-02-20T03:27:31.956Z,19.90
2019-02-20T03:32:36.703Z,19.47
2019-02-20T03:37:43.758Z,22.37
2019-02-20T03:42:49.777Z,24.73
2019-02-20T03:47:55.023Z,24.77
2019-02-20T03:53:00.383Z,23.00
2019-02-20T03:58:05.334Z,26.67
2019-02-20T04:03:11.402Z,24.50
2019-02-20T04:08:16.266Z,25.53
2019-02-20T04:13:21.419Z,23.47
2019-02-20T04:18:26.467Z,28.73
2019-02-20T04:23:31.668Z,24.13
2019-02-20T04:28:37.013Z,23.90
2019-02-20T04:33:42.031Z,26.63
2019-02-20T04:38:47.337Z,29.27
2019-02-20T04:43:51.959Z,25.30
2019-02-20T04:48:56.586Z,23.63
2019-02-20T04:54:01.113Z,24.77
2019-02-20T04:59:05.781Z,21.97
2019-02-20T05:04:10.992Z,28.17
2019-02-20T05:09:15.364Z,22.77
2019-02-20T05:14:23.139Z,25.93
2019-02-20T05:19:29.050Z,22.10
2019-02-20T05:24:33.808Z,20.00
2019-02-20T05:29:38.674Z,20.47
2019-02-20T05:34:43.796Z,23.20
2019-02-20T05:39:48.785Z,22.40
2019-02-20T05:44:53.297Z,22.80
2019-02-20T05:50:00.353Z,24.10
2019-02-20T05:55:04.941Z,20.57
2019-02-20T06:00:15.180Z,22.67
2019-02-20T06:05:20.291Z,20.50
2019-02-20T06:10:25.652Z,21.07
2019-02-20T06:15:31.046Z,20.93
2019-02-20T06:20:37.208Z,22.35
2019-02-20T06:25:44.198Z,20.33
2019-02-20T06:30:49.384Z,21.27
2019-02-20T06:35:55.768Z,22.27
2019-02-20T06:41:00.758Z,20.40
2019-02-20T06:46:08.658Z,23.13
2019-02-20T06:51:13.712Z,23.93
2019-02-20T06:56:18.879Z,21.93
2019-02-20T07:01:24.054Z,20.23
2019-02-20T07:06:56.477Z,23.43
2019-02-20T07:12:17.314Z,23.57
2019-02-20T07:17:51.356Z,19.43
2019-02-20T07:23:30.808Z,20.07
2019-02-20T07:29:08.591Z,21.67
2019-02-20T07:34:13.125Z,19.33
2019-02-20T07:39:20.536Z,19.20
2019-02-20T07:44:25.297Z,18.90
2019-02-20T07:49:33.717Z,16.02
2019-02-20T07:54:38.564Z,26.90
2019-02-20T07:59:43.007Z,20.73
2019-02-20T08:04:48.099Z,22.22
2019-02-20T08:09:52.977Z,31.23
2019-02-20T08:14:57.743Z,17.47
2019-02-20T08:20:02.151Z,18.87
2019-02-20T08:25:06.645Z,17.80
2019-02-20T08:30:13.799Z,19.97
2019-02-20T08:35:18.516Z,15.47
2019-02-20T08:40:23.995Z,17.77
2019-02-20T08:45:28.990Z,15.67
2019-02-20T08:50:33.678Z,19.67
2019-02-20T08:55:38.416Z,19.17
2019-02-20T09:00:46.291Z,20.23
2019-02-20T09:05:52.331Z,22.73
2019-02-20T09:10:56.976Z,19.87
2019-02-20T09:16:01.447Z,23.43
2019-02-20T09:21:05.939Z,17.50
2019-02-20T09:26:10.588Z,20.53
2019-02-20T09:31:15.249Z,16.67
2019-02-20T09:36:22.174Z,17.77
2019-02-20T09:41:27.268Z,19.23
2019-02-20T09:46:32.053Z,16.13
2019-02-20T09:51:36.509Z,16.48
2019-02-20T09:56:41.239Z,18.07
2019-02-20T10:01:45.963Z,14.30
2019-02-20T10:06:50.721Z,18.07
2019-02-20T10:11:55.140Z,16.43
2019-02-20T10:17:00.081Z,16.70
2019-02-20T10:22:05.368Z,13.93
2019-02-20T10:27:09.925Z,15.80
2019-02-20T10:32:14.531Z,18.93
2019-02-20T10:37:19.099Z,13.93
2019-02-20T10:42:24.055Z,18.83
2019-02-20T10:47:29.502Z,19.90
2019-02-20T10:52:34.237Z,20.83
2019-02-20T10:57:39.189Z,15.27
2019-02-20T11:02:44.173Z,21.03
2019-02-20T11:07:49.387Z,14.90
2019-02-20T11:12:53.936Z,14.87
2019-02-20T11:17:58.531Z,14.50
2019-02-20T11:23:03.430Z,17.63
2019-02-20T11:28:09.478Z,11.20
2019-02-20T11:33:14.744Z,15.23
2019-02-20T11:38:19.045Z,11.10
2019-02-20T11:43:23.677Z,10.00
2019-02-20T11:48:28.911Z,11.30
2019-02-20T11:53:37.121Z,9.83
2019-02-20T11:58:39.754Z,8.10
2019-02-20T12:03:46.416Z,12.57
2019-02-20T12:08:51.621Z,11.33
2019-02-20T12:13:56.265Z,9.60
2019-02-20T12:19:01.251Z,8.77
2019-02-20T12:24:05.955Z,8.27
2019-02-20T12:29:11.286Z,10.25
2019-02-20T12:34:16.687Z,9.70
2019-02-20T12:39:21.390Z,9.43
2019-02-20T12:44:25.795Z,12.97
2019-02-20T12:49:31.578Z,12.40
2019-02-20T12:54:36.575Z,11.67
2019-02-20T12:59:41.807Z,8.13
2019-02-20T13:04:48.356Z,12.40
2019-02-20T13:09:53.203Z,6.13
2019-02-20T13:14:57.587Z,7.13
2019-02-20T13:20:02.710Z,7.50
2019-02-20T13:25:07.290Z,8.67
2019-02-20T13:30:12.322Z,5.47
2019-02-20T13:35:21.805Z,6.70
2019-02-20T13:40:26.457Z,7.93
2019-02-20T13:45:31.450Z,7.80
2019-02-20T13:50:38.464Z,11.93
2019-02-20T13:55:44.995Z,9.13
2019-02-20T14:01:01.181Z,11.33
2019-02-20T14:06:05.982Z,8.03
2019-02-20T14:11:11.029Z,7.13
2019-02-20T14:16:17.293Z,10.37
2019-02-20T14:21:22.108Z,5.33
2019-02-20T14:26:27.014Z,8.07
2019-02-20T14:31:32.026Z,6.62
2019-02-20T14:36:37.473Z,10.13
2019-02-20T14:41:42.379Z,4.10
2019-02-20T14:46:47.032Z,6.37
2019-02-20T14:51:52.049Z,5.80
2019-02-20T14:56:56.517Z,4.73
2019-02-20T15:02:01.281Z,6.03
2019-02-20T15:07:06.471Z,4.10
2019-02-20T15:12:11.369Z,3.93
2019-02-20T15:17:17.823Z,4.67
2019-02-20T15:22:22.726Z,3.17
2019-02-20T15:27:28.873Z,4.17
2019-02-20T15:32:34.122Z,6.10
2019-02-20T15:37:39.218Z,4.20
2019-02-20T15:42:45.495Z,5.10
2019-02-20T15:47:50.358Z,4.87
2019-02-20T15:52:54.890Z,6.23
2019-02-20T15:58:00.458Z,4.83
2019-02-20T16:03:06.105Z,10.23
2019-02-20T16:08:11.127Z,12.73
2019-02-20T16:13:16.038Z,12.10
2019-02-20T16:18:21.020Z,26.53
2019-02-20T16:23:28.508Z,42.85
2019-02-20T16:28:34.189Z,29.37
2019-02-20T16:33:40.462Z,14.77
2019-02-20T16:38:46.115Z,14.77
2019-02-20T16:43:52.786Z,11.53
2019-02-20T16:48:58.400Z,12.23
2019-02-20T16:54:04.937Z,10.57
2019-02-20T16:59:09.885Z,20.77
2019-02-20T17:04:16.944Z,14.93
2019-02-20T17:09:23.215Z,15.93
2019-02-20T17:14:28.212Z,18.53
2019-02-20T17:19:34.220Z,18.80
2019-02-20T17:24:48.091Z,21.47
2019-02-20T17:29:53.175Z,21.67
2019-02-20T17:34:59.056Z,23.63
2019-02-20T17:40:04.631Z,15.73
2019-02-20T17:45:09.956Z,23.10
2019-02-20T17:50:16.109Z,16.00
2019-02-20T17:55:20.761Z,16.63
2019-02-20T18:00:27.908Z,12.93
2019-02-20T18:05:32.417Z,13.33
2019-02-20T18:10:37.997Z,15.93
2019-02-20T18:15:43.223Z,12.70
2019-02-20T18:20:47.934Z,19.67
2019-02-20T18:25:53.452Z,17.50
2019-02-20T18:31:00.030Z,19.67
2019-02-20T18:36:05.348Z,18.83
2019-02-20T18:41:10.497Z,20.77
2019-02-20T18:46:17.447Z,17.07
2019-02-20T18:51:22.344Z,17.83
2019-02-20T18:56:29.261Z,16.30
2019-02-20T19:01:33.965Z,19.67
2019-02-20T19:06:40.905Z,19.07
2019-02-20T19:12:34.688Z,17.40
2019-02-20T19:18:24.614Z,16.67
2019-02-20T19:24:29.244Z,18.43
2019-02-20T19:30:12.103Z,15.53
2019-02-20T19:36:06.752Z,21.00
2019-02-20T19:42:08.634Z,24.07
2019-02-20T19:47:53.494Z,23.93
2019-02-20T19:53:31.054Z,21.07
2019-02-20T19:58:55.338Z,18.27
2019-02-20T20:04:40.369Z,17.55
2019-02-20T20:10:12.585Z,16.80
2019-02-20T20:15:42.267Z,14.53
2019-02-20T20:21:12.955Z,15.13
2019-02-20T20:27:07.165Z,18.87
2019-02-20T20:33:17.608Z,14.47
2019-02-20T20:38:50.322Z,16.17
2019-02-20T20:44:28.108Z,16.03
2019-02-20T20:50:18.622Z,15.27
2019-02-20T20:56:07.793Z,16.07
2019-02-20T21:01:55.068Z,13.00
2019-02-20T21:07:56.313Z,12.50
2019-02-20T21:13:28.493Z,18.97
2019-02-20T21:19:38.022Z,12.07
2019-02-20T21:25:26.724Z,8.90
2019-02-20T21:30:54.891Z,9.23
2019-02-20T21:36:15.860Z,12.77
2019-02-20T21:42:04.425Z,15.70
2019-02-20T21:47:44.716Z,10.23
2019-02-20T21:53:29.012Z,11.57
2019-02-20T21:59:19.762Z,14.83
2019-02-20T22:05:08.578Z,11.70
2019-02-20T22:10:48.337Z,17.73
2019-02-20T22:16:34.827Z,16.83
2019-02-20T22:22:39.131Z,15.25
2019-02-20T22:28:41.026Z,18.10
2019-02-20T22:34:25.899Z,17.50
2019-02-20T22:39:43.477Z,15.07
2019-02-20T22:45:36.399Z,15.30
2019-02-20T22:51:27.649Z,14.93
2019-02-20T22:57:21.326Z,39.37
2019-02-20T23:02:58.989Z,33.77
2019-02-20T23:08:11.923Z,27.45
2019-02-20T23:13:27.664Z,19.17
2019-02-20T23:18:32.277Z,22.43
2019-02-20T23:23:36.893Z,18.63
2019-02-20T23:28:41.505Z,19.87
2019-02-20T23:33:46.551Z,28.53
2019-02-20T23:38:51.838Z,19.83
2019-02-20T23:43:56.132Z,14.77
2019-02-20T23:49:00.687Z,19.87
2019-02-20T23:54:05.404Z,20.97
2019-02-20T23:59:10.401Z,16.95
